Everson, Pennsylvania
Current Conditions -  °F | °C
As of 6:45 AM on Sunday 21 Dec 2014 (Local Time) from KLBE Reporting Station
Broken Clouds Broken Clouds  
Wind Chill: -2°   Ceiling: 2800
Heat Index: -2°   Visibility: 20mi
Dew Point: -4°   Wind: 0mph
Humidity: 86%   Direction: NA
Pressure: 30.31"   Gusts: NA
Location:  40.09°N, 79.59°W
Report Text: KLBE 211145Z 00000KT 20SM BKN028 M02/M04 A3031
Loading
Personal Weather Stations






























Interactive Weather Map New forecast layout! Learn more

10-Day Weather Forecast

Advertisements
Track Severe Weather on mobile